Aeroporto :
LOGIN :

Iscrizione | Disclaimer

   EN    FR    IT 

 










Sommario :    VFR   VFR Marginale   IFR   IFR Intensivo   IFR Molto Intensivo
Visibilità : 
Base nubi : 
>= 8 km
>= 3000ft
5 / 8 km
1000 / 3000 ft
1500m / 5 km
500 / 1000 ft
800 / 1500m
200 / 500 ft
< 800m
< 200 ft
Simboli :   Temporali  Nebbia  Neve Forte  Precipitazioni Forti  Vento > 20 kt
SIGMETs :   Varie  Temporali  Ghiacco  Turbolenza  Onda orograficha  Ceneri Vulcaniche







- Altitudine del aeroporto : 935 ft


EBFS - Florennes

ULTIMO METAR :
  • 231755Z AUTO 03006KT 4700 BR BKN027/// OVC100/// 09/06 Q1030 GRN

METARs OBSOLETI :
  • 231725Z AUTO 02007KT 4600 BR BKN027/// OVC110/// 09/06 Q1030 GRN
  • 231703Z AUTO 01008KT 4900 BR OVC027/// 09/06 Q1030 GRN
  • 231653Z AUTO 01008KT 4900 OVC026/// 09/06 Q1030 GRN
  • 231625Z AUTO 02008KT 7000 OVC024/// 09/05 Q1030 WHT
  • 231604Z AUTO 03007KT 7000 BKN025/// OVC036/// 09/05 Q1030 WHT
  • 231555Z AUTO 04009KT 9000 BKN025/// OVC039/// 09/05 Q1030 BLU
  • 231525Z AUTO 03008KT 7000 FEW018/// BKN024/// OVC032/// 09/05 Q1030 WHT

Previsioni scadute.
Nessun NOTAM noto per questo aeroporto.



MetMap, La meteo Aeronautica in un colpo d'occhio ! - Copyright ORBIFLY Dicembre 2007 - Disclaimer

ORBIFLY MET'MAP TEAM :

Programmazione e sviluppo : Alexandra Zaïnal
Concezione e sviluppo : Baudouin d'Aumeries
Co-Programmazione e sviluppo : Marc-Olivier Méhu
Supporto tecnico e logistico : Manuel Goepfert
Aiuto per la traduzione : Arnaldo La Scala

Contatto : metmap@orbifly.com




FONTI E CREDITI :

   NOAA